Time;durP1;ratioP1;P1;durP2;ratioP2;P2;SDS_P1;SDS_P2;PMS_P1;PMS_P2;Temp;Humidity;BMP_temperature;BMP_pressure;BME280_temperature;BME280_humidity;BME280_pressure;Samples;Min_cycle;Max_cycle;Signal;HPM_P1;HPM_P2
2023/08/28 00:01:15;;;;;;;3.13;2.05;;;13.70;99.90;;;;;;5070681;28;20103;-50
2023/08/28 00:03:43;;;;;;;4.43;2.03;;;13.80;99.90;;;;;;5070692;28;20056;-51
2023/08/28 00:06:08;;;;;;;4.28;2.15;;;13.80;99.90;;;;;;5070885;28;20025;-51
2023/08/28 00:08:34;;;;;;;2.78;1.90;;;13.80;99.90;;;;;;5070421;28;20094;-54
2023/08/28 00:11:00;;;;;;;5.43;2.35;;;13.70;99.90;;;;;;5069348;28;20028;-51
2023/08/28 00:13:26;;;;;;;2.83;2.20;;;13.80;99.90;;;;;;5070510;28;20029;-51
2023/08/28 00:15:52;;;;;;;4.47;2.15;;;13.70;99.90;;;;;;5070954;28;20025;-50
2023/08/28 00:18:17;;;;;;;3.33;2.20;;;13.70;99.90;;;;;;5069962;28;20020;-50
2023/08/28 00:20:43;;;;;;;3.75;2.45;;;13.70;99.90;;;;;;5069298;28;20024;-51
2023/08/28 00:23:09;;;;;;;2.00;1.80;;;13.70;99.90;;;;;;5069115;28;20028;-47
2023/08/28 00:25:34;;;;;;;3.58;1.90;;;13.60;99.90;;;;;;5070490;28;20016;-49
2023/08/28 00:28:00;;;;;;;3.42;2.30;;;13.60;99.90;;;;;;5069856;28;20313;-48
2023/08/28 00:30:26;;;;;;;4.40;2.05;;;13.60;99.90;;;;;;5070346;28;20409;-51
2023/08/28 00:32:51;;;;;;;6.78;2.60;;;13.60;99.90;;;;;;5070423;28;20024;-51
2023/08/28 00:35:17;;;;;;;5.60;2.75;;;13.60;99.90;;;;;;5070237;28;20347;-50
2023/08/28 00:37:42;;;;;;;3.33;2.33;;;13.60;99.90;;;;;;5069717;28;20109;-51
2023/08/28 00:40:10;;;;;;;3.92;2.28;;;13.50;99.90;;;;;;5070396;28;20016;-51
2023/08/28 00:42:36;;;;;;;3.67;2.17;;;13.50;99.90;;;;;;5070192;28;20017;-49
2023/08/28 00:45:02;;;;;;;3.13;2.47;;;13.50;99.90;;;;;;5070232;28;20066;-51
2023/08/28 00:47:28;;;;;;;2.95;2.35;;;13.40;99.90;;;;;;5070188;28;20095;-51
2023/08/28 00:49:54;;;;;;;4.38;2.45;;;13.40;99.90;;;;;;5068474;28;20108;-52
2023/08/28 00:52:19;;;;;;;2.72;2.45;;;13.40;99.90;;;;;;5069883;28;20033;-53
2023/08/28 00:54:46;;;;;;;9.05;3.45;;;13.40;99.90;;;;;;5069916;28;20090;-52
2023/08/28 00:57:14;;;;;;;7.78;3.17;;;13.30;99.90;;;;;;5069789;28;20096;-53
2023/08/28 00:59:40;;;;;;;3.33;2.80;;;13.30;99.90;;;;;;5069432;28;20466;-53
2023/08/28 01:02:06;;;;;;;7.18;3.17;;;13.30;99.90;;;;;;5060640;28;20029;-52
2023/08/28 01:04:32;;;;;;;5.88;3.83;;;13.30;99.90;;;;;;5069202;28;20019;-52
2023/08/28 01:07:13;;;;;;;3.38;2.80;;;13.30;99.90;;;;;;5069876;28;20035;-51
2023/08/28 01:09:48;;;;;;;6.20;4.03;;;13.30;99.90;;;;;;5069283;28;20047;-53
2023/08/28 01:12:29;;;;;;;10.23;3.97;;;13.20;99.90;;;;;;5069434;28;20485;-52
2023/08/28 01:15:17;;;;;;;4.80;3.42;;;13.20;99.90;;;;;;5069563;28;20048;-51
2023/08/28 01:17:44;;;;;;;8.40;4.03;;;13.20;99.90;;;;;;5067576;28;20378;-52
2023/08/28 01:20:12;;;;;;;6.47;3.90;;;13.20;99.90;;;;;;5057769;28;20032;-52
2023/08/28 01:23:01;;;;;;;8.90;4.28;;;13.20;99.90;;;;;;5057683;28;20381;-52
2023/08/28 01:25:29;;;;;;;5.72;3.92;;;13.20;99.90;;;;;;5059428;28;20115;-52
2023/08/28 01:27:56;;;;;;;6.05;4.05;;;13.20;99.90;;;;;;5055021;28;20112;-51
2023/08/28 01:30:21;;;;;;;7.70;4.07;;;13.20;99.90;;;;;;5058369;28;20017;-52
2023/08/28 01:32:47;;;;;;;7.72;4.25;;;13.20;99.90;;;;;;5055063;28;20021;-50
2023/08/28 01:35:17;;;;;;;6.30;4.10;;;13.10;99.90;;;;;;5057031;28;20028;-51
2023/08/28 01:38:07;;;;;;;6.05;3.90;;;13.10;99.90;;;;;;5056520;28;20020;-50
2023/08/28 01:40:55;;;;;;;6.43;3.60;;;13.10;99.90;;;;;;5057933;28;20024;-51
2023/08/28 01:43:47;;;;;;;4.95;3.53;;;13.10;99.90;;;;;;5068100;28;20556;-51
2023/08/28 01:46:13;;;;;;;7.85;3.53;;;13.00;99.90;;;;;;5063438;28;20029;-51
2023/08/28 01:48:52;;;;;;;6.32;4.20;;;13.00;99.90;;;;;;5065514;28;20086;-51
2023/08/28 01:51:18;;;;;;;5.78;3.90;;;13.00;99.90;;;;;;5068062;28;20032;-51
2023/08/28 01:53:43;;;;;;;8.05;4.18;;;12.90;99.90;;;;;;5069063;28;20021;-50
2023/08/28 01:56:09;;;;;;;7.93;5.05;;;12.90;99.90;;;;;;5069457;28;20378;-51
2023/08/28 01:58:43;;;;;;;8.13;4.75;;;13.00;99.90;;;;;;5068552;28;20552;-51
2023/08/28 02:01:08;;;;;;;6.60;4.40;;;12.90;99.90;;;;;;5069607;28;20077;-50
2023/08/28 02:03:34;;;;;;;6.55;4.40;;;12.90;99.90;;;;;;5067799;28;20424;-50
2023/08/28 02:06:00;;;;;;;10.70;4.55;;;12.90;99.90;;;;;;5069297;28;20349;-51
2023/08/28 02:08:26;;;;;;;4.10;3.70;;;12.90;99.90;;;;;;5069167;28;20036;-49
2023/08/28 02:10:54;;;;;;;8.10;4.70;;;12.90;99.90;;;;;;5069116;28;20017;-51
2023/08/28 02:13:20;;;;;;;10.82;5.13;;;12.80;99.90;;;;;;5069358;28;20024;-51
2023/08/28 02:15:45;;;;;;;8.52;4.78;;;12.80;99.90;;;;;;5069647;28;20547;-52
2023/08/28 02:18:11;;;;;;;5.32;4.40;;;12.80;99.90;;;;;;5058540;28;20064;-52
2023/08/28 02:20:36;;;;;;;8.77;5.15;;;12.90;99.90;;;;;;5060150;28;20065;-54
2023/08/28 02:23:02;;;;;;;9.43;4.50;;;12.80;99.90;;;;;;5058236;28;20812;-51
2023/08/28 02:25:27;;;;;;;9.52;4.88;;;12.80;99.90;;;;;;5064828;28;20017;-51
2023/08/28 02:27:53;;;;;;;12.57;5.20;;;12.70;99.90;;;;;;5070859;28;20020;-51
2023/08/28 02:30:18;;;;;;;5.88;4.60;;;12.80;99.90;;;;;;5072680;28;20489;-51
2023/08/28 02:32:47;;;;;;;11.00;4.97;;;12.70;99.90;;;;;;5066554;28;20028;-50
2023/08/28 02:35:12;;;;;;;9.48;5.78;;;12.70;99.90;;;;;;5072198;28;20063;-51
2023/08/28 02:37:38;;;;;;;8.55;5.30;;;12.70;99.90;;;;;;5072108;28;20068;-51
2023/08/28 02:40:05;;;;;;;8.57;4.55;;;12.70;99.90;;;;;;5072380;28;20104;-50
2023/08/28 02:42:30;;;;;;;7.47;5.10;;;12.70;99.90;;;;;;5072643;28;20220;-55
2023/08/28 02:44:56;;;;;;;7.07;4.72;;;12.70;99.90;;;;;;5072539;28;20068;-51
2023/08/28 02:47:22;;;;;;;6.93;5.55;;;12.70;99.90;;;;;;5072411;28;20086;-51
2023/08/28 02:49:47;;;;;;;9.43;5.13;;;12.70;99.90;;;;;;5072185;28;20021;-50
2023/08/28 02:52:13;;;;;;;6.15;4.82;;;12.70;99.90;;;;;;5072144;28;20371;-53
2023/08/28 02:54:38;;;;;;;12.23;6.10;;;12.70;99.90;;;;;;5072286;28;20043;-50
2023/08/28 02:57:04;;;;;;;7.32;5.90;;;12.70;99.90;;;;;;5072171;28;20031;-51
2023/08/28 02:59:30;;;;;;;9.95;5.35;;;12.60;99.90;;;;;;5070492;28;20036;-51
2023/08/28 03:01:56;;;;;;;7.93;6.15;;;12.60;99.90;;;;;;5071938;28;20075;-51
2023/08/28 03:04:21;;;;;;;9.32;5.63;;;12.60;99.90;;;;;;5072019;28;20522;-51
2023/08/28 03:06:47;;;;;;;6.00;4.85;;;12.60;99.90;;;;;;5071408;28;20025;-51
2023/08/28 03:09:12;;;;;;;11.10;6.43;;;12.60;99.90;;;;;;5063833;28;20043;-52
2023/08/28 03:11:38;;;;;;;6.68;5.30;;;12.60;99.90;;;;;;5072410;28;20029;-51
2023/08/28 03:14:04;;;;;;;9.95;6.72;;;12.60;99.90;;;;;;5071976;28;20028;-51
2023/08/28 03:16:30;;;;;;;8.65;6.25;;;12.50;99.90;;;;;;5071846;28;20024;-51
2023/08/28 03:18:55;;;;;;;9.80;6.10;;;12.50;99.90;;;;;;5069814;28;20029;-51
2023/08/28 03:21:21;;;;;;;12.48;7.20;;;12.50;99.90;;;;;;5065456;28;20020;-50
2023/08/28 03:23:47;;;;;;;9.88;6.22;;;12.50;99.90;;;;;;5070716;28;20024;-50
2023/08/28 03:26:13;;;;;;;8.60;6.35;;;12.50;99.90;;;;;;5072297;28;20103;-51
2023/08/28 03:28:38;;;;;;;7.43;5.70;;;12.40;99.90;;;;;;5071375;28;20027;-52
2023/08/28 03:31:04;;;;;;;10.02;7.18;;;12.40;99.90;;;;;;5072030;28;20405;-51
2023/08/28 03:33:30;;;;;;;10.75;6.95;;;12.40;99.90;;;;;;5071818;28;20367;-52
2023/08/28 03:35:56;;;;;;;12.38;6.65;;;12.30;99.90;;;;;;5071465;28;20025;-51
2023/08/28 03:38:21;;;;;;;11.70;7.25;;;12.30;99.90;;;;;;5070843;28;20040;-51
2023/08/28 03:40:47;;;;;;;9.82;7.38;;;12.20;99.90;;;;;;5071322;28;20099;-51
2023/08/28 03:43:13;;;;;;;9.93;7.53;;;12.10;99.90;;;;;;5071340;28;20036;-51
2023/08/28 03:45:39;;;;;;;12.27;7.15;;;12.10;99.90;;;;;;5071244;28;20060;-51
2023/08/28 03:48:05;;;;;;;18.50;7.78;;;12.10;99.90;;;;;;5070847;28;20032;-50
2023/08/28 03:50:31;;;;;;;10.68;7.00;;;12.00;99.90;;;;;;5069906;28;20477;-51
2023/08/28 03:52:57;;;;;;;8.98;6.70;;;12.10;99.90;;;;;;5071062;28;20032;-50
2023/08/28 03:55:24;;;;;;;8.98;7.05;;;12.10;99.90;;;;;;5071358;28;20048;-51
2023/08/28 03:57:50;;;;;;;12.63;8.07;;;12.10;99.90;;;;;;5069441;28;20103;-51
2023/08/28 04:00:18;;;;;;;8.75;7.45;;;12.00;99.90;;;;;;5070439;28;20047;-49
2023/08/28 04:02:45;;;;;;;12.38;7.68;;;12.00;99.90;;;;;;5070961;28;20032;-50
2023/08/28 04:05:11;;;;;;;14.60;7.32;;;12.00;99.90;;;;;;5069757;28;20013;-53
2023/08/28 04:07:36;;;;;;;11.27;7.82;;;12.00;99.90;;;;;;5070791;28;20497;-50
2023/08/28 04:10:03;;;;;;;13.68;8.45;;;11.90;99.90;;;;;;5070605;28;20033;-51
2023/08/28 04:12:28;;;;;;;14.77;8.90;;;11.90;99.90;;;;;;5070663;28;20489;-49
2023/08/28 04:14:54;;;;;;;10.25;7.72;;;11.90;99.90;;;;;;5050409;28;20051;-50
2023/08/28 04:17:19;;;;;;;10.73;7.63;;;11.90;99.90;;;;;;5070880;28;20024;-51
2023/08/28 04:19:48;;;;;;;15.50;9.60;;;11.90;99.90;;;;;;5069384;28;20101;-51
2023/08/28 04:22:14;;;;;;;15.80;9.55;;;11.90;99.90;;;;;;5070528;28;20046;-51
2023/08/28 04:24:39;;;;;;;13.32;9.20;;;11.90;99.90;;;;;;5070523;28;20473;-51
2023/08/28 04:27:05;;;;;;;12.27;9.32;;;11.80;99.90;;;;;;5070435;28;20466;-49
2023/08/28 04:29:30;;;;;;;13.02;9.63;;;11.80;99.90;;;;;;5070162;28;20039;-51
2023/08/28 04:31:56;;;;;;;14.30;9.10;;;11.80;99.90;;;;;;5069010;28;20315;-51
2023/08/28 04:34:21;;;;;;;18.83;10.93;;;11.70;99.90;;;;;;5070137;28;20103;-51
2023/08/28 04:36:47;;;;;;;17.52;10.45;;;11.70;99.90;;;;;;5070220;28;20046;-51
2023/08/28 04:39:13;;;;;;;14.27;9.30;;;11.70;99.90;;;;;;5068683;28;20072;-51
2023/08/28 04:41:38;;;;;;;20.02;11.00;;;11.70;99.90;;;;;;5069899;28;20208;-51
2023/08/28 04:44:04;;;;;;;13.35;10.20;;;11.60;99.90;;;;;;5068339;28;20020;-51
2023/08/28 04:46:29;;;;;;;14.55;10.70;;;11.60;99.90;;;;;;5068314;28;20029;-48
2023/08/28 04:48:55;;;;;;;15.32;11.30;;;11.60;99.90;;;;;;5069638;28;20028;-51
2023/08/28 04:51:20;;;;;;;18.77;11.65;;;11.60;99.90;;;;;;5066273;28;20044;-52
2023/08/28 04:53:46;;;;;;;17.88;10.95;;;11.70;99.90;;;;;;5060300;28;20087;-51
2023/08/28 04:56:11;;;;;;;14.82;9.43;;;11.70;99.90;;;;;;5060830;28;20082;-52
2023/08/28 04:58:37;;;;;;;15.27;11.15;;;11.70;99.90;;;;;;5063241;28;20012;-53
2023/08/28 05:01:03;;;;;;;14.70;10.18;;;11.80;99.90;;;;;;5069842;28;20473;-51
2023/08/28 05:03:28;;;;;;;13.18;9.85;;;11.80;99.90;;;;;;5069750;28;20129;-51
2023/08/28 05:05:54;;;;;;;21.90;11.55;;;11.80;99.90;;;;;;5069830;28;20025;-52
2023/08/28 05:08:20;;;;;;;17.38;10.65;;;11.80;99.90;;;;;;5069239;28;20035;-51
2023/08/28 05:10:46;;;;;;;22.77;12.20;;;11.80;99.90;;;;;;5069784;28;20146;-52
2023/08/28 05:13:11;;;;;;;14.55;10.57;;;11.90;99.90;;;;;;5069505;28;20115;-51
2023/08/28 05:15:37;;;;;;;18.42;11.80;;;11.90;99.90;;;;;;5069981;28;20051;-52
2023/08/28 05:18:03;;;;;;;15.80;10.73;;;12.00;99.90;;;;;;5069119;28;20094;-50
2023/08/28 05:20:29;;;;;;;14.20;10.63;;;12.00;99.90;;;;;;5069571;28;20097;-51
2023/08/28 05:22:55;;;;;;;15.65;10.82;;;12.00;99.90;;;;;;5067947;28;20390;-52
2023/08/28 05:25:52;;;;;;;14.77;10.95;;;12.10;99.90;;;;;;5069290;28;20025;-52
2023/08/28 05:28:18;;;;;;;15.45;11.43;;;12.20;99.90;;;;;;5064916;28;20052;-52
2023/08/28 05:30:43;;;;;;;18.42;12.23;;;12.30;99.90;;;;;;5062619;28;20024;-52
2023/08/28 05:33:09;;;;;;;18.85;12.63;;;12.40;99.90;;;;;;5055084;28;20062;-52
2023/08/28 05:35:34;;;;;;;11.05;9.80;;;12.40;99.90;;;;;;5056093;28;20096;-52
2023/08/28 05:38:00;;;;;;;14.32;10.65;;;12.50;99.90;;;;;;5053822;28;20029;-52
2023/08/28 05:40:25;;;;;;;16.25;10.43;;;12.50;99.90;;;;;;5058822;28;20198;-54
2023/08/28 05:42:51;;;;;;;14.23;9.63;;;12.60;99.90;;;;;;5051099;28;20040;-53
2023/08/28 05:45:16;;;;;;;17.52;11.77;;;12.70;99.90;;;;;;5052966;28;20017;-51
2023/08/28 05:47:42;;;;;;;16.13;10.40;;;12.70;99.90;;;;;;5053717;28;20048;-52
2023/08/28 05:50:08;;;;;;;19.55;12.00;;;12.80;99.90;;;;;;5051593;28;20044;-54
2023/08/28 05:52:34;;;;;;;13.18;10.10;;;12.90;99.90;;;;;;5061079;28;20024;-52
2023/08/28 05:54:59;;;;;;;16.27;11.43;;;13.00;99.90;;;;;;5051989;28;20048;-53
2023/08/28 05:57:25;;;;;;;16.00;11.10;;;13.00;99.90;;;;;;5056427;28;20727;-53
2023/08/28 05:59:51;;;;;;;18.52;12.45;;;13.00;99.90;;;;;;5065447;28;20432;-52
2023/08/28 06:02:16;;;;;;;14.23;10.55;;;13.10;99.90;;;;;;5066496;28;20100;-54
2023/08/28 06:04:45;;;;;;;18.17;12.73;;;13.10;99.90;;;;;;5066690;28;20027;-53
2023/08/28 06:07:11;;;;;;;18.15;11.05;;;13.20;99.90;;;;;;5066338;28;20017;-53
2023/08/28 06:09:36;;;;;;;18.98;11.35;;;13.30;99.90;;;;;;5066163;28;20296;-55
2023/08/28 06:12:02;;;;;;;14.85;11.07;;;13.40;99.90;;;;;;5066311;28;20017;-55
2023/08/28 06:14:27;;;;;;;13.52;10.85;;;13.40;99.90;;;;;;5066621;28;20028;-55
2023/08/28 06:16:53;;;;;;;14.57;10.52;;;13.40;99.90;;;;;;5065135;28;20024;-55
2023/08/28 06:19:18;;;;;;;15.07;9.82;;;13.50;99.90;;;;;;5065927;28;20432;-55
2023/08/28 06:21:45;;;;;;;14.07;10.75;;;13.60;99.90;;;;;;5066634;28;20482;-56
2023/08/28 06:24:12;;;;;;;14.30;10.20;;;13.60;99.90;;;;;;5066400;28;20044;-55
2023/08/28 06:26:37;;;;;;;17.17;11.00;;;13.70;99.90;;;;;;5065110;28;20390;-55
2023/08/28 06:29:03;;;;;;;15.23;10.40;;;13.70;99.90;;;;;;5058635;28;20025;-55
2023/08/28 06:31:29;;;;;;;12.23;10.23;;;13.80;99.90;;;;;;5066586;28;20063;-55
2023/08/28 06:33:55;;;;;;;12.57;9.65;;;13.80;99.90;;;;;;5066346;28;20051;-55
2023/08/28 06:36:21;;;;;;;14.65;10.82;;;13.90;99.90;;;;;;5066028;28;20292;-55
2023/08/28 06:38:49;;;;;;;13.85;10.48;;;13.90;99.90;;;;;;5065626;28;20109;-55
2023/08/28 06:41:15;;;;;;;15.45;9.68;;;14.00;99.90;;;;;;5066117;28;20017;-55
2023/08/28 06:43:40;;;;;;;14.93;9.38;;;14.10;99.90;;;;;;5066240;28;20440;-55
2023/08/28 06:46:06;;;;;;;14.20;9.40;;;14.10;99.90;;;;;;5064678;28;20021;-55
2023/08/28 06:48:32;;;;;;;11.23;7.97;;;14.20;99.90;;;;;;5065676;28;20056;-55
2023/08/28 06:50:58;;;;;;;12.98;8.93;;;14.20;99.90;;;;;;5066034;28;20031;-53
2023/08/28 06:53:25;;;;;;;15.07;8.90;;;14.30;99.90;;;;;;5066325;28;20028;-53
2023/08/28 06:55:50;;;;;;;10.25;8.00;;;14.30;99.90;;;;;;5066410;28;20519;-53
2023/08/28 06:58:16;;;;;;;10.15;7.57;;;14.40;99.90;;;;;;5065298;28;20032;-53
2023/08/28 07:00:42;;;;;;;9.43;7.88;;;14.50;99.90;;;;;;5066325;28;20021;-54
2023/08/28 07:03:07;;;;;;;15.32;8.35;;;14.60;99.90;;;;;;5067868;28;20016;-54
2023/08/28 07:05:33;;;;;;;12.65;7.90;;;14.70;99.90;;;;;;5069604;28;20077;-54
2023/08/28 07:07:59;;;;;;;11.02;6.88;;;14.70;99.90;;;;;;5069159;28;20410;-54
2023/08/28 07:10:24;;;;;;;12.70;7.75;;;14.80;99.90;;;;;;5069363;28;20035;-54
2023/08/28 07:12:50;;;;;;;13.52;7.45;;;14.80;99.90;;;;;;5069284;28;20028;-54
2023/08/28 07:15:18;;;;;;;9.23;6.47;;;14.90;99.90;;;;;;5067915;28;20562;-54
2023/08/28 07:17:44;;;;;;;8.68;6.53;;;14.90;99.90;;;;;;5067869;28;20029;-54
2023/08/28 07:20:09;;;;;;;8.82;6.43;;;15.00;99.90;;;;;;5069039;28;20019;-54
2023/08/28 07:22:36;;;;;;;9.63;5.82;;;15.10;99.90;;;;;;5069555;28;20235;-54
2023/08/28 07:25:02;;;;;;;9.40;5.97;;;15.10;99.90;;;;;;5068998;28;20028;-54
2023/08/28 07:27:27;;;;;;;8.88;5.85;;;15.30;99.90;;;;;;5068857;28;20511;-54
2023/08/28 07:29:53;;;;;;;7.72;5.22;;;15.40;99.90;;;;;;5067285;28;20067;-55
2023/08/28 07:32:18;;;;;;;9.75;5.30;;;15.60;99.90;;;;;;5067396;28;20123;-55
2023/08/28 07:34:44;;;;;;;5.40;3.78;;;15.70;99.90;;;;;;5067961;28;20016;-54
2023/08/28 07:37:09;;;;;;;10.20;5.13;;;15.80;99.90;;;;;;5068635;28;20024;-55
2023/08/28 07:39:35;;;;;;;7.75;4.20;;;16.00;99.90;;;;;;5068438;28;20074;-54
2023/08/28 07:42:01;;;;;;;4.55;3.65;;;16.30;99.90;;;;;;5068871;28;20027;-49
2023/08/28 07:44:26;;;;;;;5.43;3.47;;;16.70;99.90;;;;;;5067228;28;20027;-47
2023/08/28 07:46:52;;;;;;;5.82;3.47;;;17.10;99.90;;;;;;5062450;28;20013;-46
2023/08/28 07:49:18;;;;;;;4.97;2.70;;;17.30;99.90;;;;;;5068091;28;20020;-46
2023/08/28 07:51:44;;;;;;;6.85;3.08;;;17.60;99.90;;;;;;5058577;28;20028;-46
2023/08/28 07:54:11;;;;;;;4.65;2.80;;;17.80;99.90;;;;;;5052874;28;20024;-48
2023/08/28 07:56:36;;;;;;;4.90;2.72;;;18.20;99.90;;;;;;5058723;28;20432;-46
2023/08/28 07:59:03;;;;;;;4.47;2.80;;;18.90;99.90;;;;;;5064608;28;20020;-47
2023/08/28 08:01:29;;;;;;;5.18;2.20;;;19.50;99.90;;;;;;5064994;28;20017;-48
2023/08/28 08:03:54;;;;;;;5.70;2.30;;;20.00;99.90;;;;;;5058665;28;20081;-47
2023/08/28 08:06:20;;;;;;;4.40;2.25;;;20.30;99.90;;;;;;5064390;28;20230;-46
2023/08/28 08:08:45;;;;;;;4.90;2.42;;;20.60;99.90;;;;;;5059179;28;20331;-46
2023/08/28 08:11:11;;;;;;;4.63;1.85;;;21.50;99.90;;;;;;5056985;28;20094;-47
2023/08/28 08:13:37;;;;;;;2.58;1.80;;;22.40;99.40;;;;;;5056483;28;20025;-46
2023/08/28 08:16:04;;;;;;;2.88;1.60;;;23.10;97.00;;;;;;5056832;28;20024;-46
2023/08/28 08:18:30;;;;;;;1.90;1.40;;;23.70;95.60;;;;;;5063925;28;20028;-48
2023/08/28 08:20:56;;;;;;;3.72;1.65;;;23.90;95.20;;;;;;5060028;28;20218;-46
2023/08/28 08:23:21;;;;;;;2.65;1.55;;;24.40;93.60;;;;;;5057853;28;20110;-47
2023/08/28 08:25:47;;;;;;;3.15;1.40;;;24.60;93.10;;;;;;5058863;28;20017;-46
2023/08/28 08:28:12;;;;;;;4.00;1.42;;;25.20;91.00;;;;;;5056907;28;20029;-49
2023/08/28 08:30:38;;;;;;;3.28;1.25;;;25.80;90.30;;;;;;5061482;28;20541;-46
2023/08/28 08:33:04;;;;;;;3.08;1.33;;;26.00;90.00;;;;;;5057122;28;20471;-47
2023/08/28 08:35:29;;;;;;;2.60;1.15;;;26.20;86.70;;;;;;5057290;28;20021;-49
2023/08/28 08:37:55;;;;;;;4.30;1.30;;;26.60;87.20;;;;;;5060859;28;20064;-48
2023/08/28 08:40:24;;;;;;;1.95;1.45;;;27.30;83.80;;;;;;5056761;28;20561;-46
2023/08/28 08:42:50;;;;;;;2.95;1.27;;;27.80;82.50;;;;;;5057241;28;20505;-48
2023/08/28 08:45:16;;;;;;;2.80;1.17;;;27.90;80.80;;;;;;5057017;28;20320;-48
2023/08/28 08:47:46;;;;;;;2.47;1.00;;;28.10;78.20;;;;;;5067024;28;20021;-49
2023/08/28 08:50:13;;;;;;;2.33;1.30;;;28.60;77.40;;;;;;5058876;28;20030;-45
2023/08/28 08:52:42;;;;;;;2.33;1.08;;;28.30;77.90;;;;;;5057104;28;20028;-46
2023/08/28 08:55:25;;;;;;;2.00;1.00;;;27.90;77.30;;;;;;5058926;28;20020;-47
2023/08/28 08:57:55;;;;;;;2.88;1.30;;;27.40;80.00;;;;;;5054601;28;20028;-46
2023/08/28 09:00:21;;;;;;;3.42;1.45;;;26.50;81.10;;;;;;5057458;28;20020;-47
2023/08/28 09:02:47;;;;;;;3.05;1.27;;;25.80;82.10;;;;;;5057403;28;20532;-45
2023/08/28 09:05:14;;;;;;;3.92;1.13;;;25.00;83.00;;;;;;5056977;28;20031;-46
2023/08/28 09:07:42;;;;;;;1.60;1.10;;;24.50;84.70;;;;;;5053792;28;20021;-46
2023/08/28 09:10:08;;;;;;;1.67;0.98;;;24.10;86.80;;;;;;5056846;28;20044;-48
2023/08/28 09:12:33;;;;;;;2.50;0.80;;;24.40;85.40;;;;;;5057012;28;20606;-47
2023/08/28 09:14:59;;;;;;;2.17;1.40;;;24.30;87.30;;;;;;5057367;28;20465;-47
2023/08/28 09:17:26;;;;;;;2.08;1.23;;;23.80;86.40;;;;;;5057935;28;20048;-46
2023/08/28 09:19:53;;;;;;;3.95;1.20;;;23.50;86.60;;;;;;5056824;28;20446;-46
2023/08/28 09:22:22;;;;;;;3.75;2.30;;;22.90;88.60;;;;;;5058136;28;20051;-48
2023/08/28 09:24:54;;;;;;;6.15;2.08;;;22.50;90.20;;;;;;5055991;28;20048;-48
2023/08/28 09:27:20;;;;;;;6.53;1.20;;;22.10;90.80;;;;;;5055779;28;20108;-47
2023/08/28 09:29:46;;;;;;;4.00;1.25;;;21.60;91.60;;;;;;5055534;28;20104;-46
2023/08/28 09:32:13;;;;;;;3.92;1.00;;;21.20;92.20;;;;;;5054832;28;20029;-47
2023/08/28 09:34:40;;;;;;;3.33;1.08;;;21.30;92.30;;;;;;5054725;28;20090;-47
2023/08/28 09:37:12;;;;;;;3.22;1.52;;;21.30;93.00;;;;;;5055163;28;20031;-47
2023/08/28 09:39:41;;;;;;;3.80;1.30;;;21.50;92.90;;;;;;5054822;28;20013;-46
2023/08/28 09:42:09;;;;;;;3.28;1.13;;;21.80;92.80;;;;;;5055297;28;20025;-48
2023/08/28 09:44:36;;;;;;;2.90;1.45;;;21.90;92.80;;;;;;5054259;28;20025;-46
2023/08/28 09:47:02;;;;;;;3.33;1.30;;;22.00;91.50;;;;;;5055814;28;20021;-45
2023/08/28 09:49:28;;;;;;;3.95;1.23;;;22.20;91.90;;;;;;5054766;28;20028;-46
2023/08/28 09:51:57;;;;;;;4.72;1.80;;;22.20;91.00;;;;;;5056912;28;20020;-45
2023/08/28 09:54:24;;;;;;;5.70;1.30;;;22.20;90.90;;;;;;5054787;28;20028;-50
2023/08/28 09:56:51;;;;;;;2.13;0.98;;;22.50;90.20;;;;;;5053849;28;20027;-47
2023/08/28 09:59:16;;;;;;;3.72;1.30;;;22.30;90.90;;;;;;5056116;28;20201;-45
2023/08/28 10:01:42;;;;;;;2.33;1.15;;;22.20;90.60;;;;;;5054015;28;20028;-45
2023/08/28 10:04:09;;;;;;;3.55;1.30;;;22.30;91.00;;;;;;5052969;28;20016;-44
2023/08/28 10:06:41;;;;;;;1.67;1.20;;;22.30;91.00;;;;;;5052203;28;20498;-46
2023/08/28 10:09:15;;;;;;;2.15;1.00;;;22.40;91.00;;;;;;5051840;28;20064;-47
2023/08/28 10:11:43;;;;;;;2.40;1.30;;;22.30;91.00;;;;;;5052690;28;20103;-48
2023/08/28 10:14:09;;;;;;;3.92;1.30;;;22.00;92.00;;;;;;5052192;28;20017;-49
2023/08/28 10:16:57;;;;;;;3.13;1.10;;;21.90;92.30;;;;;;5052568;28;20394;-45
2023/08/28 10:19:38;;;;;;;3.83;1.20;;;21.90;92.50;;;;;;5051688;28;20440;-46
2023/08/28 10:22:06;;;;;;;3.95;1.33;;;21.90;92.10;;;;;;5054244;28;20031;-45
2023/08/28 10:24:35;;;;;;;3.03;1.13;;;21.80;91.70;;;;;;5055784;28;20066;-45
2023/08/28 10:27:01;;;;;;;1.80;1.30;;;22.10;92.00;;;;;;5055674;28;20017;-47
2023/08/28 10:29:27;;;;;;;4.25;1.58;;;22.30;91.60;;;;;;5054526;28;20501;-46
2023/08/28 10:31:55;;;;;;;2.40;1.33;;;22.40;92.40;;;;;;5056502;28;20486;-49
2023/08/28 10:34:22;;;;;;;1.20;1.00;;;22.40;92.10;;;;;;5053659;28;20170;-46
2023/08/28 10:36:50;;;;;;;3.58;1.00;;;22.30;92.40;;;;;;5066350;28;20103;-46
2023/08/28 10:39:17;;;;;;;2.25;1.20;;;22.10;91.60;;;;;;5069349;28;20395;-47
2023/08/28 10:41:46;;;;;;;2.28;1.10;;;22.10;92.00;;;;;;5069202;28;20100;-45
2023/08/28 10:44:12;;;;;;;2.35;1.25;;;22.10;92.50;;;;;;5069513;28;20036;-47
2023/08/28 10:46:39;;;;;;;2.55;1.30;;;22.30;92.30;;;;;;5073626;28;20039;-48
2023/08/28 10:49:05;;;;;;;2.60;1.40;;;22.20;92.70;;;;;;5069298;28;20035;-49
2023/08/28 10:51:33;;;;;;;1.80;0.98;;;22.00;92.10;;;;;;5069215;28;20378;-46
2023/08/28 10:54:07;;;;;;;3.38;1.90;;;21.90;93.00;;;;;;5068505;28;20028;-48
2023/08/28 10:56:34;;;;;;;3.17;1.52;;;22.00;93.90;;;;;;5064954;28;20032;-45
2023/08/28 10:59:23;;;;;;;3.45;2.22;;;21.90;92.60;;;;;;5068625;28;20028;-48
2023/08/28 11:01:52;;;;;;;1.55;1.20;;;22.30;92.00;;;;;;5069518;28;20020;-46
2023/08/28 11:04:18;;;;;;;3.93;1.50;;;22.80;92.30;;;;;;5069252;28;20020;-46
2023/08/28 11:06:45;;;;;;;3.80;1.10;;;22.70;92.00;;;;;;5069433;28;20020;-46
2023/08/28 11:09:26;;;;;;;2.70;1.40;;;22.80;91.70;;;;;;5068911;28;20482;-45
2023/08/28 11:11:52;;;;;;;2.08;1.10;;;22.40;91.70;;;;;;5066342;28;20040;-46
2023/08/28 11:14:18;;;;;;;2.95;1.13;;;23.80;91.90;;;;;;5069222;28;20438;-49
2023/08/28 11:16:43;;;;;;;2.60;1.48;;;24.30;90.10;;;;;;5067871;28;20016;-47
2023/08/28 11:19:09;;;;;;;1.90;1.05;;;24.50;88.50;;;;;;5068684;28;20025;-46
2023/08/28 11:21:44;;;;;;;1.65;1.10;;;25.10;88.20;;;;;;5069418;28;20017;-45
2023/08/28 11:24:30;;;;;;;1.48;0.98;;;24.70;87.10;;;;;;5068945;28;20091;-46
2023/08/28 11:26:56;;;;;;;2.45;0.88;;;24.60;88.10;;;;;;5069214;28;20103;-46
2023/08/28 11:29:26;;;;;;;3.83;0.95;;;25.80;83.70;;;;;;5068588;28;20108;-47
2023/08/28 11:31:52;;;;;;;2.83;1.00;;;26.60;83.90;;;;;;5069209;28;20473;-47
2023/08/28 11:34:18;;;;;;;4.20;0.90;;;27.60;81.50;;;;;;5067760;28;20051;-46
2023/08/28 11:36:45;;;;;;;1.35;0.70;;;28.30;80.30;;;;;;5069278;28;20486;-49
2023/08/28 11:39:23;;;;;;;1.50;0.82;;;28.90;80.80;;;;;;5068327;28;20139;-47
2023/08/28 11:41:50;;;;;;;0.60;0.60;;;28.80;77.50;;;;;;5069261;28;20104;-47
2023/08/28 11:44:16;;;;;;;5.18;1.10;;;28.20;77.40;;;;;;5069012;28;20024;-49
2023/08/28 11:46:42;;;;;;;2.38;1.10;;;27.40;76.60;;;;;;5067751;28;20465;-45
2023/08/28 11:49:08;;;;;;;1.42;0.90;;;26.20;77.90;;;;;;5067877;28;20021;-49
2023/08/28 11:51:36;;;;;;;2.63;0.77;;;26.30;80.00;;;;;;5068873;28;20509;-46
2023/08/28 11:54:03;;;;;;;1.30;0.70;;;26.60;78.50;;;;;;5068679;28;20028;-48
2023/08/28 11:56:33;;;;;;;1.13;0.73;;;26.90;79.90;;;;;;5068916;28;20063;-49
2023/08/28 11:58:59;;;;;;;1.02;0.63;;;26.80;77.60;;;;;;5067284;28;20595;-47
2023/08/28 12:01:27;;;;;;;1.33;0.90;;;26.40;78.10;;;;;;5068527;28;20040;-48
2023/08/28 12:03:59;;;;;;;3.25;0.75;;;26.60;76.50;;;;;;5068727;28;20497;-46
2023/08/28 12:06:24;;;;;;;3.30;1.10;;;26.60;78.30;;;;;;5068498;28;20025;-47
2023/08/28 12:08:50;;;;;;;1.75;0.70;;;26.20;79.70;;;;;;5067843;28;20500;-46
2023/08/28 12:11:18;;;;;;;2.60;0.93;;;25.90;80.00;;;;;;5068377;28;20040;-46
2023/08/28 12:13:44;;;;;;;1.25;1.15;;;25.40;79.20;;;;;;5068218;28;20430;-49
2023/08/28 12:16:20;;;;;;;3.28;1.00;;;25.00;80.80;;;;;;5068047;28;20065;-46
2023/08/28 12:18:48;;;;;;;1.80;0.88;;;25.20;82.70;;;;;;5066470;28;20064;-46
2023/08/28 12:21:15;;;;;;;1.42;0.95;;;25.30;80.80;;;;;;5062875;28;20020;-48
2023/08/28 12:23:48;;;;;;;2.38;0.80;;;25.50;82.10;;;;;;5065699;28;20218;-47
2023/08/28 12:26:17;;;;;;;2.58;1.00;;;25.10;80.20;;;;;;5068044;28;20036;-49
2023/08/28 12:28:42;;;;;;;1.98;0.90;;;24.70;81.20;;;;;;5066106;28;20025;-47
2023/08/28 12:31:09;;;;;;;1.15;0.80;;;24.70;82.30;;;;;;5068122;28;20020;-46
2023/08/28 12:33:54;;;;;;;1.27;0.70;;;24.60;85.10;;;;;;5067278;28;20020;-45
2023/08/28 12:36:26;;;;;;;1.15;0.75;;;24.40;81.70;;;;;;5061534;28;20029;-46
2023/08/28 12:38:51;;;;;;;1.45;0.82;;;24.40;84.10;;;;;;5062371;28;20494;-46
2023/08/28 12:41:17;;;;;;;1.33;0.90;;;24.40;82.20;;;;;;5067783;28;20070;-46
2023/08/28 12:43:46;;;;;;;1.75;0.77;;;24.50;83.60;;;;;;5066486;28;20016;-47